DW4238 Weather Reports


Display with metric or nautical units.
time (UTC)temp
F
wind
direction
speed
MPH
gust
MPH
rain 1hr
in
rain 24hr
in
rain mn
in
humidity
%
barometer
mb
20210224172323 72 211 12.0 18.0 0.00 0.00 0.00 75 1016.2
20210224171308 72 229 11.0 18.0 0.00 0.00 0.00 76 1016.2
20210224170324 72 215 12.0 16.0 0.00 0.00 0.00 75 1016.2
20210224165325 72 209 11.0 17.0 0.00 0.00 0.00 76 1016.2
20210224164311 71 217 9.0 18.0 0.00 0.00 0.00 76 1016.2
20210224163324 71 229 13.0 21.0 0.00 0.00 0.00 76 1016.1
20210224162313 71 225 12.0 18.0 0.00 0.00 0.00 77 1015.9
20210224161329 71 205 10.0 20.0 0.00 0.00 0.00 78 1015.8
20210224160317 72 211 12.0 22.0 0.00 0.00 0.00 77 1015.5
20210224155353 71 188 18.0 24.0 0.00 0.00 0.00 78 1015.1
20210224154326 71 215 10.0 21.0 0.00 0.00 0.00 80 1015.1
20210224153310 70 214 12.0 22.0 0.00 0.00 0.00 84 1015.0
20210224152329 69 185 15.0 19.0 0.00 0.00 0.00 89 1015.2
20210224151311 68 196 16.0 23.0 0.00 0.00 0.00 93 1015.1
20210224150327 68 203 10.0 17.0 0.00 0.00 0.00 96 1015.2
20210224145325 67 215 10.0 17.0 0.00 0.00 0.00 97 1015.2
20210224144313 67 211 12.0 17.0 0.00 0.00 0.00 98 1015.3
20210224143329 67 210 10.0 15.0 0.00 0.00 0.00 99 1015.3
20210224142320 66 202 8.0 12.0 0.00 0.00 0.00 100 1015.1
20210224141311 66 192 8.0 12.0 0.00 0.00 0.00 100 1014.9
20210224140319 66 191 10.0 16.0 0.00 0.00 0.00 100 1014.8
20210224135319 66 215 9.0 14.0 0.00 0.00 0.00 100 1014.6
20210224134323 65 193 9.0 12.0 0.00 0.00 0.00 100 1014.6
20210224133319 65 192 6.0 10.0 0.00 0.00 0.00 100 1014.5
20210224132429 65 210 7.0 10.0 0.00 0.00 0.00 100 1014.6
20210224131322 64 205 5.0 9.0 0.00 0.00 0.00 100 1014.5
20210224130312 65 197 6.0 9.0 0.00 0.00 0.00 100 1014.4
20210224125526 65 190 6.0 9.0 0.00 0.00 0.00 100 1014.4
20210224124316 65 190 7.0 10.0 0.00 0.00 0.00 100 1014.3
20210224123309 65 197 7.0 10.0 0.00 0.00 0.00 100 1014.3
20210224122316 65 197 7.0 10.0 0.00 0.00 0.00 100 1014.4
20210224121314 65 197 6.0 10.0 0.00 0.00 0.00 100 1014.2
20210224120321 64 205 7.0 12.0 0.00 0.00 0.00 100 1014.1
20210224115405 64 190 8.0 12.0 0.00 0.00 0.00 100 1014.0
20210224114323 64 203 9.0 11.0 0.00 0.00 0.00 100 1013.9
20210224113324 64 209 6.0 9.0 0.00 0.00 0.00 100 1013.8
20210224112344 64 200 5.0 9.0 0.00 0.00 0.00 100 1013.8
20210224111322 63 209 6.0 10.0 0.00 0.00 0.00 100 1013.5
20210224110314 63 188 6.0 9.0 0.00 0.00 0.00 100 1013.4
20210224105329 63 189 7.0 13.0 0.00 0.00 0.00 100 1013.2
20210224104314 63 191 9.0 12.0 0.00 0.00 0.00 100 1013.1
20210224103309 62 208 8.0 11.0 0.00 0.00 0.00 100 1013.2
20210224102343 62 183 6.0 11.0 0.00 0.00 0.00 100 1013.2
20210224101318 62 188 6.0 10.0 0.00 0.00 0.00 100 1013.2
20210224100325 62 178 6.0 10.0 0.00 0.00 0.00 100 1013.2
20210224095333 62 192 8.0 13.0 0.00 0.00 0.00 100 1013.1
20210224094309 62 204 10.0 13.0 0.00 0.00 0.00 100 1013.0
20210224093332 62 190 7.0 13.0 0.00 0.00 0.00 100 1013.2
20210224092313 61 170 6.0 10.0 0.00 0.00 0.00 100 1013.3
20210224091330 61 182 6.0 12.0 0.00 0.00 0.00 100 1013.1
20210224090319 61 202 7.0 10.0 0.00 0.00 0.00 100 1013.2
20210224085332 60 166 7.0 12.0 0.00 0.00 0.00 100 1013.1
20210224084323 60 182 7.0 13.0 0.00 0.00 0.00 100 1013.3
20210224083315 60 171 7.0 12.0 0.00 0.00 0.00 100 1013.3
20210224082324 60 178 7.0 10.0 0.00 0.00 0.00 100 1013.5
20210224081323 60 181 9.0 13.0 0.00 0.00 0.00 100 1013.7
20210224080326 60 190 8.0 13.0 0.00 0.00 0.00 100 1013.9
20210224075422 60 165 8.0 13.0 0.00 0.00 0.00 100 1013.8
20210224074310 59 162 8.0 14.0 0.00 0.00 0.00 100 1013.9
20210224073327 59 180 6.0 10.0 0.00 0.00 0.00 100 1014.0
20210224072323 59 179 6.0 10.0 0.00 0.00 0.00 100 1013.9
20210224071329 58 175 6.0 9.0 0.00 0.00 0.00 100 1013.9
20210224070317 58 167 7.0 12.0 0.00 0.00 0.00 100 1013.9
20210224065424 58 176 7.0 14.0 0.00 0.00 0.00 100 1013.9
20210224064322 58 167 8.0 14.0 0.00 0.00 0.00 100 1013.9
20210224063321 58 152 9.0 13.0 0.00 0.00 0.00 100 1013.9
20210224062335 58 151 8.0 12.0 0.00 0.00 0.00 100 1013.9
20210224061322 59 167 8.0 12.0 0.00 0.00 0.00 99 1013.9
20210224060329 59 169 7.0 11.0 0.00 0.00 0.00 99 1014.1
20210224055342 59 163 7.0 12.0 0.00 0.00 0.00 98 1014.1
20210224054315 59 162 8.0 12.0 0.00 0.00 0.00 97 1014.2
20210224053327 59 186 8.0 13.0 0.00 0.00 0.00 97 1014.2
20210224052321 60 171 8.0 13.0 0.00 0.00 0.00 96 1014.2
20210224051310 60 165 8.0 12.0 0.00 0.00 0.00 95 1014.1
20210224050322 60 167 10.0 14.0 0.00 0.00 0.00 94 1014.2
20210224045313 61 171 9.0 17.0 0.00 0.00 0.00 93 1014.2
20210224044328 61 163 10.0 16.0 0.00 0.00 0.00 92 1014.3
20210224043321 61 164 11.0 18.0 0.00 0.00 0.00 90 1014.4
20210224042344 61 174 12.0 20.0 0.00 0.00 0.00 88 1014.4
20210224041322 62 182 11.0 15.0 0.00 0.00 0.00 87 1014.5
20210224040310 62 180 10.0 22.0 0.00 0.00 0.00 86 1014.6
20210224035326 62 161 12.0 17.0 0.00 0.00 0.00 84 1014.4
20210224034318 62 171 10.0 18.0 0.00 0.00 0.00 82 1014.5
20210224033329 62 184 10.0 18.0 0.00 0.00 0.00 79 1014.4
20210224032327 63 183 10.0 20.0 0.00 0.00 0.00 75 1014.4
20210224031315 63 189 12.0 18.0 0.00 0.00 0.00 70 1014.3
20210224030322 64 165 13.0 22.0 0.00 0.00 0.00 66 1014.2
20210224025336 64 178 13.0 19.0 0.00 0.00 0.00 63 1014.0
20210224024333 65 181 11.0 21.0 0.00 0.00 0.00 59 1014.1
20210224023328 65 180 12.0 19.0 0.00 0.00 0.00 57 1014.1
20210224022328 66 186 10.0 20.0 0.00 0.00 0.00 56 1014.2
20210224021337 66 180 11.0 18.0 0.00 0.00 0.00 54 1014.1
20210224020318 66 172 10.0 18.0 0.00 0.00 0.00 54 1014.1
20210224015337 66 166 8.0 15.0 0.00 0.00 0.00 53 1014.1
20210224014319 67 180 8.0 11.0 0.00 0.00 0.00 52 1014.0
20210224013308 67 165 7.0 10.0 0.00 0.00 0.00 51 1014.0
20210224012324 68 175 8.0 14.0 0.00 0.00 0.00 50 1013.9
20210224011321 68 178 9.0 15.0 0.00 0.00 0.00 50 1013.7
20210224010327 68 165 8.0 16.0 0.00 0.00 0.00 50 1013.6
20210224005350 69 169 9.0 15.0 0.00 0.00 0.00 49 1013.6
20210224004308 69 155 8.0 14.0 0.00 0.00 0.00 50 1013.5
20210224003324 70 166 8.0 12.0 0.00 0.00 0.00 49 1013.5
20210224002313 70 180 8.0 12.0 0.00 0.00 0.00 49 1013.4
20210224001328 71 153 7.0 17.0 0.00 0.00 0.00 49 1013.3
20210224000316 72 165 11.0 15.0 0.00 0.00 0.00 48 1013.3
20210223235337 73 176 7.0 20.0 0.00 0.00 0.00 48 1013.3
20210223234323 73 171 11.0 21.0 0.00 0.00 0.00 46 1013.4
20210223233340 74 168 13.0 18.0 0.00 0.00 0.00 46 1013.3
20210223232333 74 179 11.0 19.0 0.00 0.00 0.00 46 1013.5
20210223231321 74 168 13.0 20.0 0.00 0.00 0.00 47 1013.6
20210223230312 75 175 11.0 19.0 0.00 0.00 0.00 49 1013.7
20210223225349 75 186 14.0 25.0 0.00 0.00 0.00 49 1013.7
20210223224322 75 175 11.0 24.0 0.00 0.00 0.00 48 1013.8
20210223223328 75 169 13.0 21.0 0.00 0.00 0.00 47 1013.9
20210223222326 75 211 16.0 21.0 0.00 0.00 0.00 47 1014.0
20210223221334 75 181 11.0 19.0 0.00 0.00 0.00 46 1014.2
20210223220319 75 173 13.0 19.0 0.00 0.00 0.00 46 1014.3
20210223215333 75 155 15.0 18.0 0.00 0.00 0.00 45 1014.5
20210223214321 75 171 12.0 20.0 0.00 0.00 0.00 47 1014.5
20210223213311 75 166 13.0 21.0 0.00 0.00 0.00 47 1014.7
20210223212328 75 196 13.0 21.0 0.00 0.00 0.00 46 1014.9
20210223211320 76 150 16.0 24.0 0.00 0.00 0.00 46 1014.9
20210223210309 76 195 17.0 22.0 0.00 0.00 0.00 47 1015.2
20210223205329 75 190 15.0 21.0 0.00 0.00 0.00 47 1015.3
20210223204314 75 175 14.0 22.0 0.00 0.00 0.00 48 1015.4
20210223203330 76 175 12.0 22.0 0.00 0.00 0.00 46 1015.6
20210223202317 75 188 12.0 24.0 0.00 0.00 0.00 48 1015.8
20210223201330 75 190 10.0 20.0 0.00 0.00 0.00 48 1016.0
20210223200321 75 215 12.0 19.0 0.00 0.00 0.00 48 1016.2
20210223195335 75 194 14.0 19.0 0.00 0.00 0.00 48 1016.4
20210223194323 74 194 11.0 19.0 0.00 0.00 0.00 50 1016.7
20210223193319 74 173 12.0 18.0 0.00 0.00 0.00 50 1016.9
20210223192335 73 219 14.0 21.0 0.00 0.00 0.00 52 1017.1
20210223191322 74 167 11.0 21.0 0.00 0.00 0.00 51 1017.2
20210223190310 73 203 14.0 20.0 0.00 0.00 0.00 52 1017.4
20210223185337 73 143 13.0 18.0 0.00 0.00 0.00 52 1017.7
20210223184313 72 195 11.0 14.0 0.00 0.00 0.00 55 1018.0
20210223183328 72 208 12.0 19.0 0.00 0.00 0.00 55 1018.1
20210223182337 71 220 10.0 19.0 0.00 0.00 0.00 56 1018.4
20210223181332 70 193 9.0 17.0 0.00 0.00 0.00 58 1018.7
20210223180320 70 200 10.0 15.0 0.00 0.00 0.00 58 1018.9
20210223175335 70 198 10.0 15.0 0.00 0.00 0.00 58 1019.2
20210223174324 69 209 11.0 19.0 0.00 0.00 0.00 58 1019.3
20210223173311 69 173 13.0 19.0 0.00 0.00 0.00 57 1019.6